createdAt,value
2019-04-26T00:00:35.448Z,8.40
2019-04-26T00:03:09.347Z,14.93
2019-04-26T00:05:39.094Z,3.23
2019-04-26T00:08:09.270Z,7.37
2019-04-26T00:10:52.856Z,5.33
2019-04-26T00:16:19.549Z,6.47
2019-04-26T00:18:49.106Z,7.10
2019-04-26T00:21:18.341Z,5.30
2019-04-26T00:23:47.327Z,5.10
2019-04-26T00:26:16.358Z,3.80
2019-04-26T00:28:44.986Z,10.27
2019-04-26T00:31:13.671Z,4.73
2019-04-26T00:33:42.320Z,9.57
2019-04-26T00:36:11.012Z,7.83
2019-04-26T00:38:40.390Z,4.00
2019-04-26T00:41:09.958Z,6.20
2019-04-26T00:43:38.671Z,5.63
2019-04-26T00:46:07.974Z,8.17
2019-04-26T00:48:38.275Z,7.73
2019-04-26T00:51:07.490Z,7.17
2019-04-26T00:53:37.566Z,7.13
2019-04-26T00:56:07.208Z,3.63
2019-04-26T00:58:35.872Z,8.07
2019-04-26T01:01:04.539Z,7.33
2019-04-26T01:03:33.148Z,4.10
2019-04-26T01:06:03.639Z,13.00
2019-04-26T01:08:32.301Z,5.40
2019-04-26T01:11:00.928Z,5.30
2019-04-26T01:13:29.751Z,4.67
2019-04-26T01:15:58.502Z,17.23
2019-04-26T01:18:27.253Z,11.03
2019-04-26T01:20:57.218Z,9.40
2019-04-26T01:23:28.224Z,11.40
2019-04-26T01:26:02.010Z,12.53
2019-04-26T01:28:39.813Z,6.70
2019-04-26T01:31:08.703Z,9.07
2019-04-26T01:33:38.905Z,11.03
2019-04-26T01:36:13.216Z,10.40
2019-04-26T01:38:38.759Z,9.60
2019-04-26T01:41:09.623Z,6.43
2019-04-26T01:43:40.320Z,13.13
2019-04-26T01:46:13.734Z,5.67
2019-04-26T01:49:06.002Z,6.30
2019-04-26T01:51:37.714Z,14.20
2019-04-26T01:54:07.331Z,5.43
2019-04-26T01:56:37.218Z,11.13
2019-04-26T01:59:08.153Z,6.27
2019-04-26T02:01:42.934Z,8.20
2019-04-26T02:04:12.395Z,4.40
2019-04-26T02:06:41.079Z,8.53
2019-04-26T02:09:10.914Z,14.77
2019-04-26T02:11:40.687Z,7.00
2019-04-26T02:14:09.403Z,11.30
2019-04-26T02:16:38.754Z,4.50
2019-04-26T02:19:07.402Z,13.93
2019-04-26T02:21:37.617Z,7.83
2019-04-26T02:24:10.862Z,12.83
2019-04-26T02:26:42.507Z,12.77
2019-04-26T02:29:20.414Z,9.23
2019-04-26T02:31:54.177Z,7.77
2019-04-26T02:34:22.949Z,8.77
2019-04-26T02:36:57.742Z,7.20
2019-04-26T02:39:34.091Z,39.50
2019-04-26T02:42:05.149Z,43.37
2019-04-26T02:44:37.154Z,45.67
2019-04-26T02:47:30.464Z,20.37
2019-04-26T02:50:08.111Z,22.33
2019-04-26T02:52:45.513Z,14.03
2019-04-26T02:55:36.853Z,17.77
2019-04-26T02:58:02.576Z,6.20
2019-04-26T03:00:32.184Z,7.90
2019-04-26T03:03:04.622Z,9.67
2019-04-26T03:05:37.470Z,6.93
2019-04-26T03:08:08.899Z,16.10
2019-04-26T03:10:40.634Z,16.37
2019-04-26T03:13:12.972Z,7.20
2019-04-26T03:15:52.337Z,13.83
2019-04-26T03:18:41.533Z,13.17
2019-04-26T03:21:40.490Z,16.10
2019-04-26T03:24:37.232Z,25.90
2019-04-26T03:27:18.945Z,11.37
2019-04-26T03:30:19.309Z,21.00
2019-04-26T03:32:55.713Z,14.73
2019-04-26T03:35:57.071Z,7.87
2019-04-26T03:38:38.266Z,11.03
2019-04-26T03:41:21.707Z,8.23
2019-04-26T03:43:59.455Z,7.60
2019-04-26T03:46:33.589Z,14.83
2019-04-26T03:49:06.735Z,18.17
2019-04-26T03:51:39.610Z,9.17
2019-04-26T03:54:24.086Z,11.30
2019-04-26T03:56:59.990Z,8.53
2019-04-26T03:59:33.282Z,7.33
2019-04-26T04:02:11.823Z,19.40
2019-04-26T04:04:45.363Z,9.07
2019-04-26T04:07:17.167Z,11.03
2019-04-26T04:09:48.889Z,17.80
2019-04-26T04:12:32.429Z,10.23
2019-04-26T04:15:37.938Z,10.40
2019-04-26T04:18:10.814Z,14.50
2019-04-26T04:20:53.332Z,11.70
2019-04-26T04:23:33.994Z,7.23
2019-04-26T04:26:05.696Z,13.80
2019-04-26T04:28:49.967Z,8.33
2019-04-26T04:31:28.194Z,21.53
2019-04-26T04:34:18.943Z,14.00
2019-04-26T04:36:51.382Z,15.63
2019-04-26T04:39:28.828Z,21.80
2019-04-26T04:42:23.094Z,13.57
2019-04-26T04:45:23.510Z,23.93
2019-04-26T04:48:19.016Z,6.10
2019-04-26T04:51:13.310Z,10.13
2019-04-26T04:53:54.210Z,21.90
2019-04-26T04:56:54.513Z,6.90
2019-04-26T04:59:28.799Z,14.23
2019-04-26T05:02:17.414Z,6.50
2019-04-26T05:05:23.454Z,19.13
2019-04-26T05:08:07.085Z,12.73
2019-04-26T05:10:42.059Z,14.27
2019-04-26T05:13:28.202Z,22.60
2019-04-26T05:16:32.979Z,10.30
2019-04-26T05:19:27.333Z,26.60
2019-04-26T05:22:04.981Z,23.40
2019-04-26T05:24:55.359Z,17.83
2019-04-26T05:27:48.480Z,15.67
2019-04-26T05:30:36.581Z,22.13
2019-04-26T05:33:17.429Z,12.17
2019-04-26T05:36:10.385Z,13.60
2019-04-26T05:38:42.206Z,9.00
2019-04-26T05:41:49.610Z,30.40
2019-04-26T05:44:45.536Z,6.27
2019-04-26T05:47:33.400Z,19.70
2019-04-26T05:50:21.657Z,30.57
2019-04-26T05:53:44.581Z,28.30
2019-04-26T05:56:20.642Z,21.43
2019-04-26T05:59:10.252Z,14.50
2019-04-26T06:01:52.053Z,13.13
2019-04-26T06:04:26.074Z,16.97
2019-04-26T06:07:36.979Z,21.80
2019-04-26T06:10:19.085Z,16.40
2019-04-26T06:13:20.203Z,23.60
2019-04-26T06:16:22.002Z,17.17
2019-04-26T06:19:16.708Z,11.53
2019-04-26T06:22:05.003Z,22.30
2019-04-26T06:24:36.713Z,22.87
2019-04-26T06:27:35.498Z,25.73
2019-04-26T06:30:12.814Z,9.13
2019-04-26T06:32:56.155Z,25.47
2019-04-26T06:35:21.499Z,33.70
2019-04-26T06:38:15.663Z,23.13
2019-04-26T06:41:02.655Z,22.90
2019-04-26T06:43:35.616Z,49.10
2019-04-26T06:46:11.759Z,21.40
2019-04-26T06:48:49.546Z,15.53
2019-04-26T06:51:25.183Z,30.40
2019-04-26T06:54:19.540Z,25.70
2019-04-26T06:57:14.880Z,19.70
2019-04-26T06:59:51.635Z,19.43
2019-04-26T07:02:38.227Z,27.37
2019-04-26T07:05:22.080Z,26.90
2019-04-26T07:08:19.829Z,18.63
2019-04-26T07:11:11.749Z,16.53
2019-04-26T07:14:06.870Z,21.67
2019-04-26T07:16:54.973Z,28.70
2019-04-26T07:20:04.288Z,17.73
2019-04-26T07:23:10.834Z,17.30
2019-04-26T07:25:53.118Z,23.23
2019-04-26T07:28:46.682Z,16.30
2019-04-26T07:31:29.700Z,14.63
2019-04-26T07:34:09.463Z,19.60
2019-04-26T07:36:53.164Z,12.67
2019-04-26T07:39:38.217Z,17.43
2019-04-26T07:42:35.514Z,21.30
2019-04-26T07:45:25.071Z,28.00
2019-04-26T07:48:19.288Z,23.70
2019-04-26T07:51:16.659Z,21.30
2019-04-26T07:53:58.301Z,15.57
2019-04-26T07:56:42.422Z,20.27
2019-04-26T07:59:30.896Z,13.77
2019-04-26T08:02:29.282Z,18.60
2019-04-26T08:05:09.431Z,27.53
2019-04-26T08:07:43.954Z,21.80
2019-04-26T08:10:20.216Z,23.57
2019-04-26T08:12:55.006Z,33.23
2019-04-26T08:15:40.357Z,17.80
2019-04-26T08:18:11.756Z,24.40
2019-04-26T08:20:45.049Z,16.37
2019-04-26T08:23:37.333Z,39.10
2019-04-26T08:25:48.722Z,19.93
2019-04-26T08:28:19.040Z,31.07
2019-04-26T08:30:50.273Z,31.47
2019-04-26T08:33:23.672Z,22.60
2019-04-26T08:35:54.102Z,31.63
2019-04-26T08:38:23.350Z,31.50
2019-04-26T08:40:53.166Z,20.13
2019-04-26T08:43:33.124Z,17.73
2019-04-26T08:46:23.737Z,22.17
2019-04-26T08:48:58.128Z,24.17
2019-04-26T08:51:28.815Z,29.00
2019-04-26T08:53:59.976Z,19.77
2019-04-26T08:56:43.335Z,14.23
2019-04-26T08:59:28.159Z,26.00
2019-04-26T09:02:05.047Z,36.93
2019-04-26T09:04:53.250Z,47.93
2019-04-26T09:07:31.580Z,32.57
2019-04-26T09:10:10.788Z,18.50
2019-04-26T09:12:34.568Z,32.43
2019-04-26T09:15:10.730Z,21.07
2019-04-26T09:17:39.359Z,27.90
2019-04-26T09:20:09.616Z,42.57
2019-04-26T09:22:43.255Z,27.47
2019-04-26T09:25:13.571Z,25.97
2019-04-26T09:27:53.614Z,27.57
2019-04-26T09:30:34.003Z,21.40
2019-04-26T09:33:03.034Z,36.37
2019-04-26T09:35:32.827Z,23.00
2019-04-26T09:38:02.359Z,30.63
2019-04-26T09:40:32.594Z,19.47
2019-04-26T09:43:16.691Z,23.50
2019-04-26T09:46:03.204Z,26.53
2019-04-26T09:48:33.482Z,27.00
2019-04-26T09:51:03.306Z,40.33
2019-04-26T09:53:31.960Z,33.27
2019-04-26T09:56:00.712Z,25.70
2019-04-26T09:58:30.823Z,23.10
2019-04-26T10:00:59.964Z,27.97
2019-04-26T10:03:28.600Z,28.60
2019-04-26T10:05:57.310Z,34.50
2019-04-26T10:08:26.040Z,18.70
2019-04-26T10:10:57.296Z,25.93
2019-04-26T10:13:29.817Z,33.00
2019-04-26T10:16:02.543Z,38.33
2019-04-26T10:18:31.065Z,21.90
2019-04-26T10:21:01.472Z,28.13
2019-04-26T10:23:30.168Z,33.77
2019-04-26T10:25:58.835Z,32.87
2019-04-26T10:28:27.575Z,30.70
2019-04-26T10:30:56.277Z,24.83
2019-04-26T10:33:28.826Z,33.13
2019-04-26T10:35:57.944Z,21.57
2019-04-26T10:38:27.102Z,31.97
2019-04-26T10:40:55.752Z,24.23
2019-04-26T10:43:24.370Z,35.23
2019-04-26T10:45:54.063Z,28.10
2019-04-26T10:48:25.711Z,40.10
2019-04-26T10:50:53.904Z,42.20
2019-04-26T10:53:25.656Z,29.53
2019-04-26T10:56:12.616Z,27.40
2019-04-26T10:58:45.731Z,25.67
2019-04-26T11:01:16.174Z,28.80
2019-04-26T11:03:45.306Z,26.37
2019-04-26T11:06:13.991Z,29.30
2019-04-26T11:08:45.194Z,23.00
2019-04-26T11:11:14.258Z,21.57
2019-04-26T11:13:42.921Z,27.23
2019-04-26T11:16:11.735Z,24.93
2019-04-26T11:18:42.518Z,45.43
2019-04-26T11:21:10.890Z,40.17
2019-04-26T11:23:45.011Z,28.90
2019-04-26T11:26:11.472Z,31.03
2019-04-26T11:28:42.005Z,20.43
2019-04-26T11:31:10.639Z,23.00
2019-04-26T11:33:44.681Z,20.70
2019-04-26T11:36:09.771Z,24.23
2019-04-26T11:38:39.109Z,26.23
2019-04-26T11:41:07.972Z,33.83
2019-04-26T11:43:38.817Z,23.30
2019-04-26T11:46:07.079Z,43.60
2019-04-26T11:48:35.890Z,23.13
2019-04-26T11:51:04.540Z,21.73
2019-04-26T11:53:33.653Z,27.43
2019-04-26T11:56:04.436Z,23.90
2019-04-26T11:58:33.037Z,17.10
2019-04-26T12:01:03.250Z,17.53
2019-04-26T12:03:31.983Z,26.00
2019-04-26T12:06:02.234Z,23.30
2019-04-26T12:08:32.407Z,30.30
2019-04-26T12:11:01.089Z,23.07
2019-04-26T12:13:30.580Z,20.50
2019-04-26T12:15:59.299Z,21.90
2019-04-26T12:18:28.060Z,22.03
2019-04-26T12:20:57.128Z,20.60
2019-04-26T12:23:27.187Z,19.13
2019-04-26T12:25:56.713Z,23.57
2019-04-26T12:28:25.760Z,30.53
2019-04-26T12:30:58.627Z,26.57
2019-04-26T12:33:25.150Z,13.63
2019-04-26T12:35:57.205Z,36.47
2019-04-26T12:38:28.353Z,14.57
2019-04-26T12:40:54.967Z,18.63
2019-04-26T12:43:24.566Z,18.93
2019-04-26T12:45:55.563Z,22.53
2019-04-26T12:48:26.045Z,29.97
2019-04-26T12:50:54.782Z,32.63
2019-04-26T12:53:26.760Z,26.00
2019-04-26T12:55:58.126Z,27.43
2019-04-26T12:58:24.273Z,28.20
2019-04-26T13:00:54.525Z,21.10
2019-04-26T13:03:24.863Z,22.07
2019-04-26T13:05:58.235Z,13.87
2019-04-26T13:08:24.429Z,22.97
2019-04-26T13:11:00.758Z,19.17
2019-04-26T13:13:33.882Z,22.73
2019-04-26T13:16:21.544Z,28.87
2019-04-26T13:18:50.732Z,15.17
2019-04-26T13:21:19.357Z,26.20
2019-04-26T13:23:49.094Z,23.10
2019-04-26T13:26:17.816Z,26.93
2019-04-26T13:28:46.506Z,15.97
2019-04-26T13:31:15.228Z,10.00
2019-04-26T13:33:45.437Z,20.53
2019-04-26T13:36:14.531Z,14.23
2019-04-26T13:38:45.065Z,26.73
2019-04-26T13:41:13.957Z,21.77
2019-04-26T13:43:44.816Z,14.83
2019-04-26T13:46:24.215Z,17.13
2019-04-26T13:48:57.914Z,20.40
2019-04-26T13:51:28.234Z,21.07
2019-04-26T13:53:56.943Z,20.97
2019-04-26T13:56:25.591Z,21.73
2019-04-26T13:58:58.161Z,21.40
2019-04-26T14:01:24.897Z,19.43
2019-04-26T14:03:54.473Z,29.60
2019-04-26T14:06:23.351Z,26.37
2019-04-26T14:08:53.986Z,20.50
2019-04-26T14:11:28.026Z,19.93
2019-04-26T14:13:55.403Z,27.10
2019-04-26T14:16:23.762Z,37.47
2019-04-26T14:18:53.617Z,22.77
2019-04-26T14:21:22.411Z,17.83
2019-04-26T14:23:58.367Z,20.60
2019-04-26T14:26:28.706Z,25.77
2019-04-26T14:28:59.445Z,18.60
2019-04-26T14:31:28.933Z,27.33
2019-04-26T14:34:01.309Z,22.20
2019-04-26T14:36:29.997Z,25.53
2019-04-26T14:39:06.103Z,36.43
2019-04-26T14:41:31.591Z,20.43
2019-04-26T14:44:14.457Z,21.70
2019-04-26T14:46:31.332Z,39.77
2019-04-26T14:49:03.958Z,21.43
2019-04-26T14:51:30.325Z,20.90
2019-04-26T14:53:59.068Z,30.83
2019-04-26T14:56:29.425Z,21.03
2019-04-26T14:59:01.714Z,22.57
2019-04-26T15:01:36.930Z,22.23
2019-04-26T15:04:23.262Z,18.10
2019-04-26T15:06:58.113Z,27.17
2019-04-26T15:09:33.253Z,15.20
2019-04-26T15:12:00.916Z,16.83
2019-04-26T15:14:24.769Z,16.30
2019-04-26T15:16:54.689Z,8.53
2019-04-26T15:19:23.364Z,8.27
2019-04-26T15:21:53.004Z,9.40
2019-04-26T15:24:22.645Z,7.20
2019-04-26T15:26:51.667Z,6.50
2019-04-26T15:29:26.840Z,6.03
2019-04-26T15:31:53.634Z,11.63
2019-04-26T15:34:26.608Z,9.10
2019-04-26T15:36:54.370Z,19.40
2019-04-26T15:39:25.204Z,7.33
2019-04-26T15:42:10.973Z,3.50
2019-04-26T15:45:01.924Z,7.97
2019-04-26T15:47:42.266Z,12.40
2019-04-26T15:50:13.437Z,13.90
2019-04-26T15:52:43.774Z,12.00
2019-04-26T15:55:13.379Z,18.40
2019-04-26T15:57:44.862Z,22.43
2019-04-26T16:00:14.372Z,15.97
2019-04-26T16:02:43.021Z,4.97
2019-04-26T16:05:13.442Z,11.87
2019-04-26T16:07:42.986Z,14.70
2019-04-26T16:10:14.188Z,6.63
2019-04-26T16:12:44.405Z,15.20
2019-04-26T16:15:14.881Z,9.53
2019-04-26T16:17:43.580Z,4.80
2019-04-26T16:20:13.639Z,12.63
2019-04-26T16:22:43.043Z,6.23
2019-04-26T16:25:12.776Z,12.13
2019-04-26T16:27:43.111Z,9.33
2019-04-26T16:30:17.843Z,6.73
2019-04-26T16:32:58.932Z,10.30
2019-04-26T16:35:28.608Z,5.77
2019-04-26T16:38:00.151Z,6.57
2019-04-26T16:40:28.958Z,6.00
2019-04-26T16:42:59.787Z,5.87
2019-04-26T16:45:28.687Z,3.87
2019-04-26T16:47:57.512Z,4.20
2019-04-26T16:50:31.440Z,3.57
2019-04-26T16:52:56.707Z,12.77
2019-04-26T16:55:25.398Z,4.63
2019-04-26T16:57:58.045Z,4.33
2019-04-26T17:00:47.225Z,3.10
2019-04-26T17:03:02.715Z,2.40
2019-04-26T17:05:45.443Z,3.80
2019-04-26T17:07:58.846Z,4.10
2019-04-26T17:10:27.057Z,3.27
2019-04-26T17:12:55.891Z,1.70
2019-04-26T17:15:24.681Z,2.23
2019-04-26T17:17:54.060Z,3.00
2019-04-26T17:20:23.290Z,10.00
2019-04-26T17:22:59.401Z,4.20
2019-04-26T17:25:32.637Z,2.17
2019-04-26T17:28:03.306Z,2.97
2019-04-26T17:30:40.829Z,1.27
2019-04-26T17:33:05.850Z,2.30
2019-04-26T17:35:36.619Z,1.30
2019-04-26T17:38:06.141Z,2.23
2019-04-26T17:40:39.182Z,5.03
2019-04-26T17:43:09.705Z,1.63
2019-04-26T17:45:40.832Z,2.83
2019-04-26T17:48:12.860Z,1.07
2019-04-26T17:50:42.371Z,3.00
2019-04-26T17:53:16.142Z,0.57
2019-04-26T17:55:45.849Z,0.60
2019-04-26T17:58:17.820Z,0.60
2019-04-26T18:00:47.617Z,0.60
2019-04-26T18:03:17.047Z,0.50
2019-04-26T18:05:56.704Z,0.37
2019-04-26T18:08:36.047Z,1.10
2019-04-26T18:10:49.188Z,0.67
2019-04-26T18:13:21.400Z,0.60
2019-04-26T18:15:50.050Z,0.53
2019-04-26T18:18:23.355Z,0.60
2019-04-26T18:21:13.008Z,0.60
2019-04-26T18:23:40.337Z,0.60
2019-04-26T18:26:09.567Z,1.57
2019-04-26T18:28:40.128Z,1.27
2019-04-26T18:31:14.557Z,0.90
2019-04-26T18:33:42.574Z,3.83
2019-04-26T18:36:14.553Z,9.37
2019-04-26T18:38:48.490Z,14.30
2019-04-26T18:41:15.760Z,7.10
2019-04-26T18:43:46.392Z,3.50
2019-04-26T18:46:20.407Z,4.10
2019-04-26T18:48:49.548Z,7.63
2019-04-26T18:51:18.651Z,2.30
2019-04-26T18:53:53.197Z,0.43
2019-04-26T18:56:23.960Z,0.80
2019-04-26T18:58:55.669Z,0.63
2019-04-26T19:01:24.482Z,0.30
2019-04-26T19:03:54.146Z,0.87
2019-04-26T19:06:29.688Z,0.50
2019-04-26T19:08:57.637Z,0.30
2019-04-26T19:11:25.086Z,0.30
2019-04-26T19:14:12.984Z,0.50
2019-04-26T19:16:40.700Z,0.40
2019-04-26T19:19:22.792Z,0.30
2019-04-26T19:21:52.636Z,0.30
2019-04-26T19:24:23.059Z,0.30
2019-04-26T19:26:53.404Z,0.30
2019-04-26T19:29:31.314Z,0.30
2019-04-26T19:31:56.588Z,0.30
2019-04-26T19:34:26.093Z,0.30
2019-04-26T19:36:59.713Z,0.60
2019-04-26T19:39:32.254Z,0.93
2019-04-26T19:41:58.668Z,0.30
2019-04-26T19:44:28.423Z,17.10
2019-04-26T19:47:13.970Z,10.30
2019-04-26T19:49:44.176Z,4.33
2019-04-26T19:52:24.645Z,4.60
2019-04-26T19:55:12.283Z,3.87
2019-04-26T19:58:01.996Z,7.23
2019-04-26T20:00:32.214Z,1.00
2019-04-26T20:03:01.921Z,0.30
2019-04-26T20:05:32.065Z,0.50
2019-04-26T20:08:02.934Z,0.73
2019-04-26T20:10:40.205Z,1.27
2019-04-26T20:13:07.517Z,0.57
2019-04-26T20:15:36.574Z,0.40
2019-04-26T20:18:05.805Z,0.30
2019-04-26T20:20:36.263Z,1.50
2019-04-26T20:23:07.801Z,4.70
2019-04-26T20:25:36.150Z,21.50
2019-04-26T20:28:06.584Z,2.60
2019-04-26T20:30:46.060Z,2.17
2019-04-26T20:33:15.807Z,1.10
2019-04-26T20:35:45.017Z,0.70
2019-04-26T20:38:13.802Z,0.40
2019-04-26T20:40:43.442Z,2.30
2019-04-26T20:43:23.786Z,0.30
2019-04-26T20:46:07.996Z,0.40
2019-04-26T20:48:16.755Z,0.30
2019-04-26T20:50:45.872Z,0.20
2019-04-26T20:53:15.180Z,0.30
2019-04-26T20:55:43.847Z,0.57
2019-04-26T20:58:13.611Z,2.10
2019-04-26T21:00:53.769Z,0.43
2019-04-26T21:03:22.735Z,0.30
2019-04-26T21:05:46.422Z,0.30
2019-04-26T21:08:14.319Z,0.30
2019-04-26T21:10:43.006Z,0.40
2019-04-26T21:13:12.197Z,0.50
2019-04-26T21:15:53.493Z,0.40
2019-04-26T21:18:12.510Z,0.30
2019-04-26T21:20:42.521Z,7.00
2019-04-26T21:23:13.231Z,0.33
2019-04-26T21:26:02.784Z,0.63
2019-04-26T21:28:38.057Z,0.30
2019-04-26T21:31:09.110Z,0.83
2019-04-26T21:33:48.601Z,4.63
2019-04-26T21:36:36.329Z,0.77
2019-04-26T21:39:07.313Z,0.60
2019-04-26T21:41:40.329Z,1.60
2019-04-26T21:44:12.279Z,0.30
2019-04-26T21:46:39.340Z,0.30
2019-04-26T21:49:08.160Z,0.40
2019-04-26T21:51:36.958Z,0.30
2019-04-26T21:54:05.635Z,0.40
2019-04-26T21:56:34.418Z,0.30
2019-04-26T21:59:05.055Z,0.30
2019-04-26T22:01:34.453Z,1.03
2019-04-26T22:04:03.195Z,0.40
2019-04-26T22:06:33.473Z,0.50
2019-04-26T22:09:07.139Z,1.43
2019-04-26T22:11:35.847Z,0.57
2019-04-26T22:14:06.499Z,0.30
2019-04-26T22:16:53.381Z,0.20
2019-04-26T22:19:32.473Z,1.20
2019-04-26T22:22:07.923Z,0.30
2019-04-26T22:24:44.117Z,0.53
2019-04-26T22:27:13.373Z,1.37
2019-04-26T22:29:43.648Z,0.30
2019-04-26T22:32:17.760Z,0.50
2019-04-26T22:34:46.353Z,1.17
2019-04-26T22:37:28.800Z,0.40
2019-04-26T22:39:46.704Z,0.30
2019-04-26T22:42:16.102Z,0.30
2019-04-26T22:44:53.917Z,0.20
2019-04-26T22:47:40.887Z,0.30
2019-04-26T22:50:07.251Z,0.57
2019-04-26T22:52:35.936Z,2.80
2019-04-26T22:55:07.023Z,0.30
2019-04-26T22:57:35.976Z,2.33
2019-04-26T23:00:05.554Z,0.30
2019-04-26T23:02:34.265Z,0.63
2019-04-26T23:05:05.974Z,0.60
2019-04-26T23:07:35.124Z,0.40
2019-04-26T23:10:05.758Z,0.43
2019-04-26T23:12:36.887Z,0.43
2019-04-26T23:15:30.071Z,0.50
2019-04-26T23:18:03.639Z,0.50
2019-04-26T23:20:50.941Z,1.13
2019-04-26T23:23:19.877Z,0.70
2019-04-26T23:25:49.179Z,0.40
2019-04-26T23:28:18.000Z,0.40
2019-04-26T23:30:46.995Z,0.40
2019-04-26T23:33:15.705Z,0.40
2019-04-26T23:35:47.571Z,1.40
2019-04-26T23:38:15.479Z,0.30
2019-04-26T23:40:44.164Z,0.63
2019-04-26T23:43:13.047Z,0.57
2019-04-26T23:45:48.317Z,0.20
2019-04-26T23:48:13.371Z,0.30
2019-04-26T23:50:43.031Z,0.30
2019-04-26T23:53:11.794Z,15.57
2019-04-26T23:55:42.543Z,0.30
2019-04-26T23:58:13.837Z,2.10
